Time;durP1;ratioP1;P1;durP2;ratioP2;P2;SDS_P1;SDS_P2;PMS_P1;PMS_P2;Temp;Humidity;BMP_temperature;BMP_pressure;BME280_temperature;BME280_humidity;BME280_pressure;Samples;Min_cycle;Max_cycle;Signal;HPM_P1;HPM_P2
2023/08/09 00:00:14;;;;;;;4.18;2.80;;;;;;;;;;612791;23;1269;-72
2023/08/09 00:00:32;;;;;;;4.85;2.80;;;;;;;;;;611141;23;1313;-72
2023/08/09 00:00:48;;;;;;;6.20;2.85;;;;;;;;;;612135;23;875;-72
2023/08/09 00:01:03;;;;;;;5.85;2.90;;;;;;;;;;611968;23;894;-71
2023/08/09 00:01:19;;;;;;;4.68;2.97;;;;;;;;;;611826;23;887;-72
2023/08/09 00:01:35;;;;;;;4.28;2.92;;;;;;;;;;611988;23;1898;-72
2023/08/09 00:01:51;;;;;;;3.97;2.80;;;;;;;;;;610414;23;1132;-72
2023/08/09 00:02:07;;;;;;;4.07;2.80;;;;;;;;;;613414;23;829;-72
2023/08/09 00:02:26;;;;;;;5.65;3.00;;;;;;;;;;616169;23;1102;-72
2023/08/09 00:02:42;;;;;;;6.25;2.83;;;;;;;;;;617804;23;942;-72
2023/08/09 00:03:01;;;;;;;5.20;2.97;;;;;;;;;;618440;23;886;-72
2023/08/09 00:03:25;;;;;;;4.90;2.90;;;;;;;;;;620089;23;1313;-71
2023/08/09 00:03:44;;;;;;;4.65;2.70;;;;;;;;;;623068;23;907;-73
2023/08/09 00:04:09;;;;;;;5.20;2.67;;;;;;;;;;623018;23;808;-72
2023/08/09 00:04:27;;;;;;;4.95;3.03;;;;;;;;;;621362;23;1266;-72
2023/08/09 00:04:43;;;;;;;6.38;3.10;;;;;;;;;;616482;23;1636;-72
2023/08/09 00:05:05;;;;;;;4.63;2.72;;;;;;;;;;616194;23;834;-73
2023/08/09 00:05:33;;;;;;;5.75;2.80;;;;;;;;;;615684;23;1220;-73
2023/08/09 00:06:07;;;;;;;4.30;2.75;;;;;;;;;;613368;23;1377;-72
2023/08/09 00:06:22;;;;;;;4.07;2.70;;;;;;;;;;612079;23;1527;-72
2023/08/09 00:06:38;;;;;;;4.85;3.00;;;;;;;;;;610918;23;1308;-72
2023/08/09 00:06:54;;;;;;;5.43;2.90;;;;;;;;;;610039;23;1299;-72
2023/08/09 00:07:10;;;;;;;5.28;2.85;;;;;;;;;;607013;24;1278;-72
2023/08/09 00:07:26;;;;;;;5.38;3.00;;;;;;;;;;609792;23;1579;-72
2023/08/09 00:07:45;;;;;;;5.05;2.85;;;;;;;;;;609712;23;885;-72
2023/08/09 00:08:01;;;;;;;3.75;2.70;;;;;;;;;;609682;23;1278;-72
2023/08/09 00:08:16;;;;;;;3.58;2.70;;;;;;;;;;610566;23;862;-71
2023/08/09 00:08:32;;;;;;;3.72;2.70;;;;;;;;;;612096;23;1139;-72
2023/08/09 00:08:48;;;;;;;5.10;2.95;;;;;;;;;;615851;23;1211;-72
2023/08/09 00:09:07;;;;;;;6.25;3.10;;;;;;;;;;616255;23;856;-72
2023/08/09 00:09:31;;;;;;;5.38;2.92;;;;;;;;;;617653;23;1278;-72
2023/08/09 00:09:47;;;;;;;4.47;2.70;;;;;;;;;;619423;23;1051;-72
2023/08/09 00:10:12;;;;;;;4.57;2.90;;;;;;;;;;624089;23;1415;-73
2023/08/09 00:10:30;;;;;;;4.88;2.95;;;;;;;;;;623472;23;1199;-72
2023/08/09 00:10:52;;;;;;;5.68;3.00;;;;;;;;;;620121;23;921;-72
2023/08/09 00:11:07;;;;;;;5.22;2.80;;;;;;;;;;618141;23;875;-71
2023/08/09 00:11:23;;;;;;;5.15;2.70;;;;;;;;;;622159;23;1331;-72
2023/08/09 00:11:38;;;;;;;5.30;2.80;;;;;;;;;;620464;23;859;-72
2023/08/09 00:11:54;;;;;;;4.65;2.85;;;;;;;;;;619720;23;860;-72
2023/08/09 00:12:09;;;;;;;4.67;2.90;;;;;;;;;;619724;23;812;-73
2023/08/09 00:12:25;;;;;;;4.93;2.88;;;;;;;;;;619304;23;1164;-72
2023/08/09 00:12:40;;;;;;;4.50;2.90;;;;;;;;;;619274;23;1244;-72
2023/08/09 00:12:56;;;;;;;4.13;2.88;;;;;;;;;;619413;23;813;-72
2023/08/09 00:13:12;;;;;;;3.77;2.67;;;;;;;;;;616404;23;1274;-71
2023/08/09 00:13:28;;;;;;;3.72;2.80;;;;;;;;;;618980;23;1481;-72
2023/08/09 00:13:44;;;;;;;4.50;2.95;;;;;;;;;;615924;23;1403;-72
2023/08/09 00:14:00;;;;;;;5.00;2.85;;;;;;;;;;614745;23;840;-73
2023/08/09 00:14:16;;;;;;;4.60;2.77;;;;;;;;;;611550;23;1063;-72
2023/08/09 00:14:37;;;;;;;4.15;2.90;;;;;;;;;;609412;23;1212;-72
2023/08/09 00:14:59;;;;;;;5.40;3.20;;;;;;;;;;609929;23;1918;-72
2023/08/09 00:15:26;;;;;;;4.53;3.00;;;;;;;;;;613794;23;1078;-71
2023/08/09 00:15:48;;;;;;;4.00;2.70;;;;;;;;;;618583;23;896;-71
2023/08/09 00:16:47;;;;;;;4.40;2.95;;;;;;;;;;616522;23;1429;-71
2023/08/09 00:17:03;;;;;;;5.43;3.10;;;;;;;;;;617016;23;1498;-72
2023/08/09 00:17:28;;;;;;;4.85;2.97;;;;;;;;;;612479;23;1369;-71
2023/08/09 00:17:50;;;;;;;4.30;2.88;;;;;;;;;;611263;23;1581;-72
2023/08/09 00:18:05;;;;;;;4.88;3.20;;;;;;;;;;614255;23;1767;-72
2023/08/09 00:18:35;;;;;;;4.30;2.97;;;;;;;;;;615005;23;1179;-71
2023/08/09 00:18:54;;;;;;;4.65;2.85;;;;;;;;;;611874;23;1370;-71
2023/08/09 00:20:11;;;;;;;5.18;3.00;;;;;;;;;;609513;24;1151;-72
2023/08/09 00:20:57;;;;;;;4.90;2.97;;;;;;;;;;616254;23;1142;-72
2023/08/09 00:21:15;;;;;;;4.55;2.85;;;;;;;;;;610271;24;1179;-72
2023/08/09 00:21:40;;;;;;;4.40;2.95;;;;;;;;;;616994;23;1256;-72
2023/08/09 00:21:56;;;;;;;4.65;3.10;;;;;;;;;;616322;23;1398;-72
2023/08/09 00:22:35;;;;;;;4.95;2.90;;;;;;;;;;619175;23;1748;-72
2023/08/09 00:22:51;;;;;;;5.55;3.28;;;;;;;;;;616706;23;1339;-72
2023/08/09 00:23:10;;;;;;;5.95;3.13;;;;;;;;;;617766;23;1262;-71
2023/08/09 00:23:26;;;;;;;5.97;3.17;;;;;;;;;;618144;23;1261;-73
2023/08/09 00:23:42;;;;;;;5.28;3.00;;;;;;;;;;619610;23;1344;-72
2023/08/09 00:24:25;;;;;;;3.75;2.70;;;;;;;;;;622334;23;859;-72
2023/08/09 00:25:03;;;;;;;5.10;3.00;;;;;;;;;;615864;23;987;-72
2023/08/09 00:25:19;;;;;;;5.22;2.92;;;;;;;;;;604741;24;1504;-72
2023/08/09 00:25:38;;;;;;;4.38;2.83;;;;;;;;;;620253;23;1308;-72
2023/08/09 00:25:54;;;;;;;3.90;2.78;;;;;;;;;;624337;23;836;-71
2023/08/09 00:26:16;;;;;;;3.97;2.75;;;;;;;;;;619594;23;1460;-71
2023/08/09 00:26:38;;;;;;;4.18;2.75;;;;;;;;;;622383;23;870;-73
2023/08/09 00:26:59;;;;;;;4.90;2.92;;;;;;;;;;620709;23;1221;-72
2023/08/09 00:27:19;;;;;;;5.15;3.33;;;;;;;;;;623799;23;847;-72
2023/08/09 00:27:43;;;;;;;4.57;3.20;;;;;;;;;;622106;23;1158;-72
2023/08/09 00:28:10;;;;;;;5.00;2.90;;;;;;;;;;619912;23;1087;-73
2023/08/09 00:28:26;;;;;;;4.63;3.00;;;;;;;;;;622252;23;880;-72
2023/08/09 00:28:44;;;;;;;3.92;2.97;;;;;;;;;;619148;23;1109;-72
2023/08/09 00:29:03;;;;;;;4.07;3.30;;;;;;;;;;619376;23;1152;-72
2023/08/09 00:29:19;;;;;;;4.25;3.00;;;;;;;;;;619732;23;1365;-72
2023/08/09 00:29:35;;;;;;;5.88;3.00;;;;;;;;;;622149;23;867;-72
2023/08/09 00:29:50;;;;;;;5.57;3.10;;;;;;;;;;620776;23;1764;-72
2023/08/09 00:30:13;;;;;;;5.18;3.17;;;;;;;;;;619359;23;1211;-73
2023/08/09 00:30:38;;;;;;;4.72;2.72;;;;;;;;;;619512;23;1170;-72
2023/08/09 00:30:54;;;;;;;4.57;2.75;;;;;;;;;;620874;23;839;-72
2023/08/09 00:31:10;;;;;;;4.20;2.88;;;;;;;;;;619934;23;1146;-72
2023/08/09 00:31:26;;;;;;;5.57;3.20;;;;;;;;;;620386;23;1292;-72
2023/08/09 00:31:45;;;;;;;5.72;3.10;;;;;;;;;;619817;23;1447;-71
2023/08/09 00:32:07;;;;;;;4.53;2.90;;;;;;;;;;621900;23;1472;-71
2023/08/09 00:32:28;;;;;;;4.43;2.90;;;;;;;;;;622991;23;1320;-71
2023/08/09 00:32:50;;;;;;;6.43;3.00;;;;;;;;;;623992;23;1518;-71
2023/08/09 00:33:06;;;;;;;5.43;2.90;;;;;;;;;;621230;23;918;-71
2023/08/09 00:33:27;;;;;;;5.20;3.00;;;;;;;;;;620497;23;1111;-72
2023/08/09 00:34:22;;;;;;;5.28;3.00;;;;;;;;;;617470;23;1181;-72
2023/08/09 00:34:38;;;;;;;5.68;2.90;;;;;;;;;;607557;23;1653;-72
2023/08/09 00:34:54;;;;;;;5.35;3.03;;;;;;;;;;622827;23;1976;-72
2023/08/09 00:35:10;;;;;;;5.13;3.20;;;;;;;;;;623193;23;948;-72
2023/08/09 00:35:39;;;;;;;;;;;;;;;;;;;;;
2023/08/09 00:36:27;;;;;;;5.85;3.05;;;;;;;;;;623392;23;1111;-71
2023/08/09 00:36:47;;;;;;;5.63;3.00;;;;;;;;;;620534;23;1176;-72
2023/08/09 00:37:17;;;;;;;5.57;3.13;;;;;;;;;;617107;23;1352;-72
2023/08/09 00:37:44;;;;;;;5.22;3.10;;;;;;;;;;616991;23;1482;-71
2023/08/09 00:38:26;;;;;;;5.65;3.17;;;;;;;;;;617918;23;1119;-72
2023/08/09 00:38:51;;;;;;;4.68;3.20;;;;;;;;;;605612;24;1236;-73
2023/08/09 00:39:09;;;;;;;3.90;2.95;;;;;;;;;;624998;23;1045;-72
2023/08/09 00:39:31;;;;;;;4.82;3.10;;;;;;;;;;625839;23;878;-73
2023/08/09 00:39:47;;;;;;;5.13;3.28;;;;;;;;;;628563;23;938;-72
2023/08/09 00:40:11;;;;;;;5.43;3.30;;;;;;;;;;625670;23;1194;-72
2023/08/09 00:40:36;;;;;;;4.65;3.30;;;;;;;;;;625002;23;860;-72
2023/08/09 00:41:03;;;;;;;5.75;3.30;;;;;;;;;;621370;23;1399;-72
2023/08/09 00:42:04;;;;;;;5.35;3.10;;;;;;;;;;614310;23;1268;-71
2023/08/09 00:42:23;;;;;;;4.57;3.10;;;;;;;;;;614512;23;1075;-71
2023/08/09 00:42:45;;;;;;;4.68;3.10;;;;;;;;;;614420;23;1053;-72
2023/08/09 00:43:22;;;;;;;5.25;3.28;;;;;;;;;;623274;23;1764;-72
2023/08/09 00:43:40;;;;;;;5.40;2.90;;;;;;;;;;623867;23;854;-73
2023/08/09 00:43:57;;;;;;;5.28;3.25;;;;;;;;;;620033;23;1757;-73
2023/08/09 00:44:12;;;;;;;5.10;3.30;;;;;;;;;;617516;23;1823;-72
2023/08/09 00:44:30;;;;;;;4.78;3.20;;;;;;;;;;616639;23;1241;-72
2023/08/09 00:44:48;;;;;;;4.47;2.85;;;;;;;;;;614630;23;1568;-72
2023/08/09 00:45:13;;;;;;;5.07;3.17;;;;;;;;;;617610;23;872;-72
2023/08/09 00:45:36;;;;;;;6.32;3.40;;;;;;;;;;617755;23;836;-72
2023/08/09 00:45:52;;;;;;;6.78;3.60;;;;;;;;;;617485;23;964;-72
2023/08/09 00:46:14;;;;;;;5.68;3.47;;;;;;;;;;615702;23;1508;-72
2023/08/09 00:46:39;;;;;;;4.72;3.03;;;;;;;;;;617586;23;1166;-72
2023/08/09 00:47:01;;;;;;;4.43;3.17;;;;;;;;;;617584;23;930;-72
2023/08/09 00:47:23;;;;;;;6.22;3.40;;;;;;;;;;614478;23;1460;-72
2023/08/09 00:47:51;;;;;;;5.07;3.22;;;;;;;;;;614277;23;899;-71
2023/08/09 00:48:12;;;;;;;4.90;3.40;;;;;;;;;;615086;23;1262;-72
2023/08/09 00:48:40;;;;;;;4.63;3.25;;;;;;;;;;615107;23;1602;-72
2023/08/09 00:49:25;;;;;;;3.28;2.80;;;;;;;;;;616724;23;1255;-72
2023/08/09 00:50:30;;;;;;;6.88;3.60;;;;;;;;;;618293;23;1464;-72
2023/08/09 00:50:46;;;;;;;5.88;3.35;;;;;;;;;;607797;23;1506;-72
2023/08/09 00:51:14;;;;;;;5.50;3.42;;;;;;;;;;612938;23;1050;-72
2023/08/09 00:51:39;;;;;;;7.30;3.70;;;;;;;;;;625281;23;1030;-72
2023/08/09 00:52:00;;;;;;;6.55;3.42;;;;;;;;;;627829;23;1002;-71
2023/08/09 00:52:20;;;;;;;5.95;3.20;;;;;;;;;;627604;23;828;-72
2023/08/09 00:53:08;;;;;;;6.57;3.60;;;;;;;;;;627909;23;1136;-72
2023/08/09 00:53:27;;;;;;;5.28;3.22;;;;;;;;;;626625;23;1253;-73
2023/08/09 00:53:45;;;;;;;5.03;3.30;;;;;;;;;;624752;23;1253;-72
2023/08/09 00:54:01;;;;;;;5.05;3.20;;;;;;;;;;621609;23;1245;-71
2023/08/09 00:54:35;;;;;;;5.15;3.25;;;;;;;;;;618098;23;1377;-70
2023/08/09 00:54:55;;;;;;;4.78;3.10;;;;;;;;;;615000;23;1131;-71
2023/08/09 00:56:17;;;;;;;3.58;2.90;;;;;;;;;;610087;23;862;-72
2023/08/09 00:56:38;;;;;;;4.63;3.22;;;;;;;;;;619259;23;1974;-72
2023/08/09 00:57:14;;;;;;;8.32;3.65;;;;;;;;;;622855;23;939;-72
2023/08/09 00:57:34;;;;;;;6.22;3.65;;;;;;;;;;618939;23;1409;-73
2023/08/09 00:57:51;;;;;;;5.80;3.72;;;;;;;;;;621068;23;848;-72
2023/08/09 00:58:10;;;;;;;6.70;3.90;;;;;;;;;;617518;23;1320;-72
2023/08/09 00:58:28;;;;;;;6.38;3.47;;;;;;;;;;615266;23;1302;-71
2023/08/09 00:58:53;;;;;;;6.75;3.75;;;;;;;;;;617753;23;1154;-72
2023/08/09 00:59:27;;;;;;;6.78;3.60;;;;;;;;;;617337;23;1212;-71
2023/08/09 00:59:57;;;;;;;7.88;4.05;;;;;;;;;;617101;23;1415;-71
2023/08/09 01:01:32;;;;;;;6.57;3.80;;;;;;;;;;612868;23;1307;-71
2023/08/09 01:01:53;;;;;;;5.47;3.72;;;;;;;;;;613648;23;897;-71
2023/08/09 01:02:15;;;;;;;5.82;3.70;;;;;;;;;;622828;23;1476;-71
2023/08/09 01:02:37;;;;;;;6.00;3.53;;;;;;;;;;623716;23;969;-72
2023/08/09 01:02:59;;;;;;;5.63;3.70;;;;;;;;;;619558;23;2198;-71
2023/08/09 01:03:21;;;;;;;4.85;3.60;;;;;;;;;;620913;23;934;-72
2023/08/09 01:03:37;;;;;;;5.93;3.60;;;;;;;;;;617690;23;1455;-72
2023/08/09 01:04:01;;;;;;;5.72;3.53;;;;;;;;;;618623;23;934;-71
2023/08/09 01:05:04;;;;;;;6.05;3.60;;;;;;;;;;618834;23;1178;-71
2023/08/09 01:05:55;;;;;;;5.72;3.95;;;;;;;;;;608368;23;1500;-72
2023/08/09 01:06:24;;;;;;;5.80;3.83;;;;;;;;;;617418;23;1162;-71
2023/08/09 01:07:09;;;;;;;6.20;3.80;;;;;;;;;;623896;23;937;-71
2023/08/09 01:07:53;;;;;;;5.45;3.60;;;;;;;;;;617116;23;1039;-72
2023/08/09 01:09:03;;;;;;;6.20;3.70;;;;;;;;;;613326;23;894;-72
2023/08/09 01:09:49;;;;;;;5.50;4.03;;;;;;;;;;616084;23;1625;-72
2023/08/09 01:10:27;;;;;;;6.03;4.13;;;;;;;;;;622340;23;1000;-73
2023/08/09 01:10:53;;;;;;;6.07;4.18;;;;;;;;;;623058;23;798;-72
2023/08/09 01:11:23;;;;;;;6.72;4.50;;;;;;;;;;623449;23;794;-72
2023/08/09 01:11:45;;;;;;;7.05;4.35;;;;;;;;;;622239;23;1277;-72
2023/08/09 01:12:34;;;;;;;7.43;4.50;;;;;;;;;;623128;23;851;-71
2023/08/09 01:13:01;;;;;;;5.78;4.07;;;;;;;;;;611646;23;1249;-71
2023/08/09 01:13:34;;;;;;;6.03;4.05;;;;;;;;;;610820;23;1128;-71
2023/08/09 01:14:03;;;;;;;6.45;4.32;;;;;;;;;;611111;23;1252;-71
2023/08/09 01:14:30;;;;;;;5.53;4.13;;;;;;;;;;611676;23;940;-71
2023/08/09 01:15:01;;;;;;;5.57;4.25;;;;;;;;;;611545;23;876;-71
2023/08/09 01:15:21;;;;;;;5.55;3.90;;;;;;;;;;612015;23;923;-72
2023/08/09 01:15:44;;;;;;;5.45;4.00;;;;;;;;;;609198;24;1181;-73
2023/08/09 01:16:01;;;;;;;5.45;3.85;;;;;;;;;;611673;23;899;-72
2023/08/09 01:16:23;;;;;;;6.40;4.00;;;;;;;;;;611170;23;1336;-71
2023/08/09 01:16:39;;;;;;;5.63;4.00;;;;;;;;;;611605;23;848;-72
2023/08/09 01:16:56;;;;;;;4.35;3.80;;;;;;;;;;608427;24;1382;-72
2023/08/09 01:17:24;;;;;;;5.20;3.90;;;;;;;;;;608624;24;1465;-72
2023/08/09 01:17:43;;;;;;;6.20;4.10;;;;;;;;;;608319;24;1125;-71
2023/08/09 01:18:01;;;;;;;5.38;3.90;;;;;;;;;;608365;24;785;-72
2023/08/09 01:18:17;;;;;;;5.82;3.97;;;;;;;;;;606102;24;1355;-72
2023/08/09 01:18:35;;;;;;;5.15;3.75;;;;;;;;;;605122;24;1418;-72
2023/08/09 01:18:52;;;;;;;5.13;3.70;;;;;;;;;;605534;24;933;-72
2023/08/09 01:19:18;;;;;;;5.68;3.80;;;;;;;;;;607751;24;1873;-71
2023/08/09 01:19:36;;;;;;;5.53;3.97;;;;;;;;;;606366;24;1376;-72
2023/08/09 01:19:59;;;;;;;4.93;3.70;;;;;;;;;;605388;24;1400;-72
2023/08/09 01:20:16;;;;;;;6.47;3.72;;;;;;;;;;604837;24;1259;-72
2023/08/09 01:20:36;;;;;;;7.03;4.03;;;;;;;;;;602715;24;1293;-72
2023/08/09 01:20:56;;;;;;;6.68;4.10;;;;;;;;;;599015;24;1173;-72
2023/08/09 01:21:17;;;;;;;6.40;4.20;;;;;;;;;;599312;24;1760;-71
2023/08/09 01:21:41;;;;;;;6.88;4.22;;;;;;;;;;602815;24;858;-72
2023/08/09 01:22:26;;;;;;;6.03;3.88;;;;;;;;;;605494;24;844;-72
2023/08/09 01:22:50;;;;;;;7.18;4.55;;;;;;;;;;599244;23;1489;-72
2023/08/09 01:23:17;;;;;;;8.85;4.50;;;;;;;;;;613180;23;839;-72
2023/08/09 01:23:46;;;;;;;8.20;4.45;;;;;;;;;;613996;23;785;-72
2023/08/09 01:24:09;;;;;;;6.25;4.47;;;;;;;;;;615143;23;868;-72
2023/08/09 01:24:26;;;;;;;5.72;4.32;;;;;;;;;;611917;23;1362;-72
2023/08/09 01:24:45;;;;;;;5.57;4.55;;;;;;;;;;610556;23;981;-72
2023/08/09 01:25:06;;;;;;;5.93;4.25;;;;;;;;;;611531;23;949;-72
2023/08/09 01:25:25;;;;;;;6.75;4.40;;;;;;;;;;611373;23;1129;-72
2023/08/09 01:25:45;;;;;;;6.82;4.70;;;;;;;;;;611387;23;954;-72
2023/08/09 01:26:01;;;;;;;6.53;4.65;;;;;;;;;;611226;23;1321;-73
2023/08/09 01:26:17;;;;;;;6.03;4.45;;;;;;;;;;612159;23;1033;-72
2023/08/09 01:26:38;;;;;;;5.80;4.38;;;;;;;;;;613936;23;1065;-72
2023/08/09 01:26:55;;;;;;;5.90;4.40;;;;;;;;;;613778;23;1235;-72
2023/08/09 01:27:13;;;;;;;5.28;4.32;;;;;;;;;;611530;23;1455;-72
2023/08/09 01:27:30;;;;;;;6.45;4.18;;;;;;;;;;610713;23;1305;-72
2023/08/09 01:27:46;;;;;;;6.50;3.92;;;;;;;;;;611259;23;1044;-72
2023/08/09 01:28:05;;;;;;;5.57;3.97;;;;;;;;;;611423;23;1103;-72
2023/08/09 01:28:21;;;;;;;5.35;4.15;;;;;;;;;;611341;23;800;-72
2023/08/09 01:28:46;;;;;;;6.38;4.18;;;;;;;;;;609300;24;1254;-72
2023/08/09 01:29:01;;;;;;;6.07;4.18;;;;;;;;;;608227;23;1307;-71
2023/08/09 01:29:17;;;;;;;5.70;3.97;;;;;;;;;;605584;23;1156;-72
2023/08/09 01:29:36;;;;;;;5.38;3.83;;;;;;;;;;607364;23;1333;-71
2023/08/09 01:29:54;;;;;;;5.15;4.10;;;;;;;;;;604683;24;1426;-71
2023/08/09 01:30:13;;;;;;;6.00;4.18;;;;;;;;;;608418;23;833;-71
2023/08/09 01:30:37;;;;;;;6.03;4.05;;;;;;;;;;607507;23;1528;-72
2023/08/09 01:31:03;;;;;;;6.97;4.35;;;;;;;;;;610399;24;848;-71
2023/08/09 01:31:25;;;;;;;6.00;4.32;;;;;;;;;;611773;23;1070;-72
2023/08/09 01:31:47;;;;;;;6.15;4.32;;;;;;;;;;611147;23;1071;-71
2023/08/09 01:32:11;;;;;;;5.10;3.95;;;;;;;;;;608832;23;1235;-71
2023/08/09 01:32:28;;;;;;;5.97;4.20;;;;;;;;;;611126;23;891;-72
2023/08/09 01:32:56;;;;;;;7.72;4.47;;;;;;;;;;611697;23;908;-72
2023/08/09 01:33:17;;;;;;;6.00;4.50;;;;;;;;;;610978;23;863;-72
2023/08/09 01:33:48;;;;;;;6.10;4.80;;;;;;;;;;608277;23;2010;-71
2023/08/09 01:34:19;;;;;;;6.65;4.50;;;;;;;;;;611974;23;1027;-72
2023/08/09 01:34:37;;;;;;;6.97;4.88;;;;;;;;;;613148;23;1428;-71
2023/08/09 01:35:15;;;;;;;5.80;4.55;;;;;;;;;;613053;23;1554;-72
2023/08/09 01:35:40;;;;;;;6.95;4.75;;;;;;;;;;612190;23;1348;-72
2023/08/09 01:36:39;;;;;;;7.05;4.70;;;;;;;;;;613390;23;1036;-72
2023/08/09 01:37:44;;;;;;;5.30;4.13;;;;;;;;;;603010;24;1348;-72
2023/08/09 01:38:17;;;;;;;7.15;4.50;;;;;;;;;;602422;24;1359;-71
2023/08/09 01:38:59;;;;;;;6.30;4.60;;;;;;;;;;603359;23;1359;-72
2023/08/09 01:39:21;;;;;;;7.10;4.00;;;;;;;;;;611569;23;927;-72
2023/08/09 01:39:42;;;;;;;7.20;4.47;;;;;;;;;;611345;23;1078;-71
2023/08/09 01:40:26;;;;;;;7.65;4.85;;;;;;;;;;611173;23;1529;-70
2023/08/09 01:40:47;;;;;;;7.10;4.70;;;;;;;;;;610240;23;1157;-72
2023/08/09 01:41:07;;;;;;;7.85;4.80;;;;;;;;;;608118;23;1292;-71
2023/08/09 01:41:45;;;;;;;7.05;4.60;;;;;;;;;;605734;23;2002;-72
2023/08/09 01:42:04;;;;;;;7.57;4.55;;;;;;;;;;608499;23;1422;-72
2023/08/09 01:42:32;;;;;;;7.32;4.50;;;;;;;;;;608753;24;995;-71
2023/08/09 01:42:54;;;;;;;6.88;4.75;;;;;;;;;;607869;23;1308;-71
2023/08/09 01:43:11;;;;;;;8.05;4.70;;;;;;;;;;612258;23;900;-71
2023/08/09 01:43:27;;;;;;;8.05;4.63;;;;;;;;;;614199;23;984;-71
2023/08/09 01:43:44;;;;;;;7.25;4.50;;;;;;;;;;613974;23;827;-71
2023/08/09 01:44:00;;;;;;;6.35;4.25;;;;;;;;;;611879;23;843;-70
2023/08/09 01:44:17;;;;;;;4.93;4.05;;;;;;;;;;611208;23;1073;-72
2023/08/09 01:44:35;;;;;;;4.70;4.10;;;;;;;;;;609819;23;1412;-71
2023/08/09 01:44:52;;;;;;;6.93;4.53;;;;;;;;;;611535;23;883;-72
2023/08/09 01:45:13;;;;;;;7.47;4.57;;;;;;;;;;611628;23;860;-72
2023/08/09 01:45:29;;;;;;;7.72;4.63;;;;;;;;;;611351;23;892;-71
2023/08/09 01:45:56;;;;;;;7.82;4.95;;;;;;;;;;608332;23;1371;-72
2023/08/09 01:46:21;;;;;;;7.72;4.88;;;;;;;;;;605190;23;1788;-72
2023/08/09 01:46:38;;;;;;;6.45;4.60;;;;;;;;;;608324;23;828;-71
2023/08/09 01:46:54;;;;;;;6.25;4.60;;;;;;;;;;605997;24;1994;-72
2023/08/09 01:47:11;;;;;;;6.77;4.70;;;;;;;;;;605977;23;1318;-72
2023/08/09 01:47:27;;;;;;;7.05;4.90;;;;;;;;;;608014;23;1370;-72
2023/08/09 01:47:43;;;;;;;6.75;4.68;;;;;;;;;;608003;23;1669;-71
2023/08/09 01:47:59;;;;;;;7.00;4.60;;;;;;;;;;607520;23;1202;-71
2023/08/09 01:48:15;;;;;;;6.43;4.60;;;;;;;;;;607559;23;1230;-72
2023/08/09 01:48:35;;;;;;;6.20;4.40;;;;;;;;;;605705;24;1392;-71
2023/08/09 01:48:53;;;;;;;7.22;4.68;;;;;;;;;;601875;24;1610;-71
2023/08/09 01:49:22;;;;;;;8.40;4.40;;;;;;;;;;604580;24;1159;-72
2023/08/09 01:49:45;;;;;;;7.35;4.53;;;;;;;;;;606193;24;1005;-72
2023/08/09 01:50:04;;;;;;;7.05;4.47;;;;;;;;;;604816;23;1434;-72
2023/08/09 01:50:36;;;;;;;6.03;4.30;;;;;;;;;;602948;24;1314;-72
2023/08/09 01:51:27;;;;;;;6.18;4.55;;;;;;;;;;613846;23;1086;-72
2023/08/09 01:51:46;;;;;;;5.57;3.90;;;;;;;;;;602016;24;1526;-72
2023/08/09 01:52:06;;;;;;;6.40;4.07;;;;;;;;;;602112;24;1804;-72
2023/08/09 01:52:25;;;;;;;6.50;4.00;;;;;;;;;;605758;24;1359;-72
2023/08/09 01:52:43;;;;;;;5.93;4.00;;;;;;;;;;615921;23;1346;-72
2023/08/09 01:53:05;;;;;;;5.63;4.00;;;;;;;;;;619918;23;1455;-72
2023/08/09 01:53:24;;;;;;;6.07;4.38;;;;;;;;;;620120;23;1461;-71
2023/08/09 01:55:36;;;;;;;7.60;4.80;;;;;;;;;;603909;24;1918;-72
2023/08/09 01:55:52;;;;;;;9.25;4.70;;;;;;;;;;600451;24;1390;-72
2023/08/09 01:56:08;;;;;;;8.07;4.85;;;;;;;;;;606849;23;1310;-72
2023/08/09 01:56:23;;;;;;;7.80;4.90;;;;;;;;;;608125;23;862;-72
2023/08/09 01:56:43;;;;;;;8.05;4.88;;;;;;;;;;607510;23;907;-73
2023/08/09 01:57:11;;;;;;;7.10;4.72;;;;;;;;;;613191;23;1333;-72
2023/08/09 01:57:39;;;;;;;8.85;5.03;;;;;;;;;;619560;23;1249;-72
2023/08/09 01:58:00;;;;;;;6.40;4.43;;;;;;;;;;621068;23;1489;-73
2023/08/09 01:58:17;;;;;;;5.82;4.47;;;;;;;;;;621636;23;1202;-73
2023/08/09 01:58:41;;;;;;;5.80;4.43;;;;;;;;;;621177;23;1376;-73
2023/08/09 01:59:00;;;;;;;5.28;4.70;;;;;;;;;;617580;23;1210;-72
2023/08/09 01:59:29;;;;;;;6.40;4.80;;;;;;;;;;618216;23;1163;-72
2023/08/09 02:00:00;;;;;;;6.65;4.43;;;;;;;;;;619020;23;1080;-72
2023/08/09 02:00:25;;;;;;;7.28;4.50;;;;;;;;;;620628;23;867;-72
2023/08/09 02:00:47;;;;;;;5.40;4.40;;;;;;;;;;622276;23;932;-72
2023/08/09 02:01:08;;;;;;;7.00;4.53;;;;;;;;;;625896;23;868;-71
2023/08/09 02:01:27;;;;;;;7.53;4.75;;;;;;;;;;625087;23;1038;-72
2023/08/09 02:02:04;;;;;;;4.90;4.40;;;;;;;;;;625615;23;768;-72
2023/08/09 02:02:24;;;;;;;6.50;4.60;;;;;;;;;;624643;23;1182;-72
2023/08/09 02:02:40;;;;;;;7.72;5.07;;;;;;;;;;625971;23;983;-71
2023/08/09 02:03:20;;;;;;;7.13;4.60;;;;;;;;;;621757;23;1238;-71
2023/08/09 02:03:37;;;;;;;6.28;4.57;;;;;;;;;;621472;23;1587;-72
2023/08/09 02:03:56;;;;;;;6.10;4.13;;;;;;;;;;619704;23;1478;-72
2023/08/09 02:04:15;;;;;;;6.63;4.55;;;;;;;;;;619809;23;888;-72
2023/08/09 02:04:30;;;;;;;7.10;4.80;;;;;;;;;;619980;23;851;-71
2023/08/09 02:05:16;;;;;;;6.18;4.15;;;;;;;;;;619839;23;1303;-72
2023/08/09 02:05:32;;;;;;;7.93;4.75;;;;;;;;;;616542;23;1352;-71
2023/08/09 02:06:11;;;;;;;7.40;4.65;;;;;;;;;;615711;23;1241;-71
2023/08/09 02:06:33;;;;;;;5.13;4.10;;;;;;;;;;602092;24;1617;-71
2023/08/09 02:06:52;;;;;;;5.28;4.50;;;;;;;;;;616708;23;835;-72
2023/08/09 02:07:07;;;;;;;6.13;4.57;;;;;;;;;;614559;23;1318;-73
2023/08/09 02:07:23;;;;;;;6.25;4.43;;;;;;;;;;617298;23;1079;-72
2023/08/09 02:07:39;;;;;;;6.57;4.50;;;;;;;;;;617734;23;1426;-72
2023/08/09 02:07:56;;;;;;;6.80;4.45;;;;;;;;;;620222;23;882;-72
2023/08/09 02:08:15;;;;;;;6.28;4.43;;;;;;;;;;619635;23;852;-72
2023/08/09 02:08:30;;;;;;;6.50;4.70;;;;;;;;;;620279;23;1282;-72
2023/08/09 02:08:46;;;;;;;6.57;4.70;;;;;;;;;;618741;23;1120;-72
2023/08/09 02:09:02;;;;;;;6.60;4.90;;;;;;;;;;620155;23;839;-72
2023/08/09 02:09:21;;;;;;;6.07;4.78;;;;;;;;;;619174;23;879;-72
2023/08/09 02:09:37;;;;;;;7.15;4.70;;;;;;;;;;619874;23;1115;-71
2023/08/09 02:09:53;;;;;;;6.53;4.60;;;;;;;;;;616190;23;2434;-72
2023/08/09 02:10:12;;;;;;;5.82;4.78;;;;;;;;;;614122;23;1136;-72
2023/08/09 02:10:31;;;;;;;7.03;4.97;;;;;;;;;;616199;23;1284;-72
2023/08/09 02:10:53;;;;;;;6.22;4.55;;;;;;;;;;614579;23;1264;-72
2023/08/09 02:11:32;;;;;;;6.55;4.95;;;;;;;;;;614413;23;903;-72
2023/08/09 02:11:48;;;;;;;5.97;4.53;;;;;;;;;;610368;23;1186;-72
2023/08/09 02:12:16;;;;;;;6.93;4.82;;;;;;;;;;612281;23;1138;-72
2023/08/09 02:12:51;;;;;;;;;;;;;;;;;;;;;
2023/08/09 02:13:13;;;;;;;6.93;5.13;;;;;;;;;;622792;23;1047;-72
2023/08/09 02:13:40;;;;;;;6.43;4.95;;;;;;;;;;622971;23;879;-72
2023/08/09 02:13:56;;;;;;;6.88;4.97;;;;;;;;;;621267;23;1470;-72
2023/08/09 02:14:24;;;;;;;6.47;4.88;;;;;;;;;;619605;23;1359;-72
2023/08/09 02:14:40;;;;;;;5.88;4.75;;;;;;;;;;617251;23;1123;-72
2023/08/09 02:14:59;;;;;;;7.07;4.80;;;;;;;;;;617070;23;824;-72
2023/08/09 02:15:33;;;;;;;7.15;4.65;;;;;;;;;;616367;23;1206;-72
2023/08/09 02:15:52;;;;;;;5.97;4.97;;;;;;;;;;617986;23;1511;-72
2023/08/09 02:16:11;;;;;;;6.82;4.80;;;;;;;;;;620400;23;1493;-71
2023/08/09 02:16:47;;;;;;;6.20;4.40;;;;;;;;;;620316;23;1757;-72
2023/08/09 02:17:24;;;;;;;6.57;4.50;;;;;;;;;;619169;23;1320;-72
2023/08/09 02:17:58;;;;;;;6.82;4.55;;;;;;;;;;619637;23;903;-71
2023/08/09 02:18:13;;;;;;;8.18;4.97;;;;;;;;;;620028;23;1322;-73
2023/08/09 02:19:01;;;;;;;6.70;4.70;;;;;;;;;;623311;23;819;-72
2023/08/09 02:19:28;;;;;;;6.13;4.40;;;;;;;;;;617004;23;1168;-72
2023/08/09 02:19:47;;;;;;;5.88;4.55;;;;;;;;;;617007;23;1155;-72
2023/08/09 02:20:04;;;;;;;6.07;4.53;;;;;;;;;;617355;23;1751;-71
2023/08/09 02:20:20;;;;;;;6.35;4.47;;;;;;;;;;623325;23;844;-72
2023/08/09 02:20:41;;;;;;;6.55;4.72;;;;;;;;;;621932;23;907;-72
2023/08/09 02:20:59;;;;;;;6.25;4.75;;;;;;;;;;622310;23;849;-72
2023/08/09 02:21:14;;;;;;;5.47;4.57;;;;;;;;;;622427;23;1091;-73
2023/08/09 02:21:33;;;;;;;5.32;4.20;;;;;;;;;;622866;23;828;-71
2023/08/09 02:21:55;;;;;;;6.43;4.15;;;;;;;;;;619998;23;1131;-72
2023/08/09 02:22:17;;;;;;;6.60;4.45;;;;;;;;;;622152;23;859;-72
2023/08/09 02:22:39;;;;;;;5.53;4.38;;;;;;;;;;622952;23;874;-72
2023/08/09 02:22:58;;;;;;;6.00;4.35;;;;;;;;;;619881;23;1221;-71
2023/08/09 02:23:14;;;;;;;6.30;4.40;;;;;;;;;;620258;23;868;-71
2023/08/09 02:23:32;;;;;;;5.53;4.10;;;;;;;;;;616109;23;1906;-72
2023/08/09 02:23:48;;;;;;;4.78;4.07;;;;;;;;;;616354;23;1308;-72
2023/08/09 02:24:05;;;;;;;6.10;4.32;;;;;;;;;;616768;23;816;-71
2023/08/09 02:24:44;;;;;;;7.13;4.50;;;;;;;;;;617916;23;1046;-72
2023/08/09 02:24:59;;;;;;;7.00;4.25;;;;;;;;;;619619;23;985;-72
2023/08/09 02:25:18;;;;;;;6.53;4.20;;;;;;;;;;619411;23;856;-72
2023/08/09 02:25:40;;;;;;;5.43;4.10;;;;;;;;;;619772;23;1543;-71
2023/08/09 02:25:56;;;;;;;6.18;4.22;;;;;;;;;;622703;23;866;-72
2023/08/09 02:26:14;;;;;;;7.03;4.50;;;;;;;;;;619572;23;1051;-72
2023/08/09 02:26:42;;;;;;;7.63;4.47;;;;;;;;;;617106;23;1364;-72
2023/08/09 02:27:04;;;;;;;6.15;4.45;;;;;;;;;;614064;23;1519;-71
2023/08/09 02:27:20;;;;;;;6.10;4.30;;;;;;;;;;611284;23;1344;-72
2023/08/09 02:27:36;;;;;;;5.50;4.20;;;;;;;;;;610559;23;1276;-72
2023/08/09 02:27:54;;;;;;;5.35;4.30;;;;;;;;;;611342;23;1330;-73
2023/08/09 02:28:13;;;;;;;6.43;4.43;;;;;;;;;;613564;23;927;-72
2023/08/09 02:28:29;;;;;;;6.82;4.60;;;;;;;;;;613381;23;1475;-72